KSUU

Travis AFB Airport

Fairfield, California, USA
METAR KSUU 231458Z AUTO 26017G24KT 10SM OVC015 14/10 A2988 RMK AO2 PK WND 25027/21 OVC V BKN SLP125 T01390095 52015 $
Observed Flight Rules
May-23 @ 14:58 UTC (13 minutes ago) Marginal Visual Flight Rules
Wind Visibility Clouds
260° at 17 knots
 Gusting to 24 knots
10 miles
  • Overcast at 1,500' AGL
Temperatures Readings
Current 14°C / 57°F
Dewpoint 10°C / 50°F
Humidity 77%
Altimeter 29.88" Hg
Pressure 1012.5 hPa
Elevation 19
METAR KSUU 231458Z AUTO 26017G24KT 10SM OVC015 14/10 A2988 RMK AO2 PK WND 25027/21 OVC V BKN SLP125 T01390095 52015 $
Observed Flight Rules
May-23 @ 14:58 UTC
(13 minutes ago)
MVFR
Wind Visibility
260° at 17 knots
 Gusting to 24 knots
10 miles
Clouds
  • Overcast at 1,500' AGL
Temperature Dewpoint
14°C / 57°F 10°C / 50°F
Humidity Altimeter Pressure
77% 29.88" Hg 1012.5 hPa